• Join FlightAware (Why Join?)
  • Login
  • US Flag 
10:47PM EST


 

Airport Tracker/Info


-or-


 

Live Flight TrackerFlight Track Log ✈ JZA7927 ✈ 20-Sep-2013 ✈ KBWI - CYYZ

Flight Track Log - Related Links

Times and Time Zones

All times are in EDT time to prevent confusion due to time zone crossing. See the JZA7927 flight status page for this flight to view local times or setup timezone preferences in your user account.

Time Position Orientation Groundspeed Altitude Reporting Facility
EDT Latitude Longitude Course Direction KTS MPH feet Rate Location/Type
06:14AM 39.2000 -76.6667 335° Northwest 129 148 1,000  Level Potomac TRACON
06:14AM 39.2333 -76.6833 339° North 146 168 2,400 1,560 Climbing Potomac TRACON
06:15AM 39.2500 -76.7167 303° West 145 167 3,900 1,680 Climbing Potomac TRACON
06:16AM 39.2667 -76.7667 293° West 137 158 5,600 1,680 Climbing Potomac TRACON
06:17AM 39.4318 -76.8253 322° Northwest  Level Estimated
06:17AM 39.2833 -76.8167 293° West 146 168 7,100  Level Potomac TRACON
06:18AM 39.4959 -76.8647 346° North  Level Estimated
06:18AM 39.2833 -76.8667 270° West 153 176 8,700  Level Potomac TRACON
06:19AM 39.5600 -76.9042 335° Northwest  Level Estimated
06:19AM 39.3000 -76.9167 293° West 154 177 9,800  Level Potomac TRACON
06:20AM 39.3333 -76.9500 322° Northwest 185 213 10,600 960 Climbing Potomac TRACON
06:21AM 39.3667 -77.0000 311° West 188 216 11,700 840 Climbing Potomac TRACON
06:24AM 39.4453 -77.1342 307° West 197 227 13,600 720 Climbing Washington Center
06:25AM 39.4781 -77.1858 309° West 197 227 14,200 660 Climbing Washington Center
06:26AM 39.5128 -77.2406 309° West 197 227 15,000 780 Climbing Washington Center
06:27AM 39.5681 -77.3319 308° West 196 226 16,200 720 Climbing New York Center
06:28AM 39.6006 -77.3889 307° West 196 226 17,000 660 Climbing New York Center
06:29AM 39.6353 -77.4378 313° West 196 226 17,600 540 Climbing New York Center
06:30AM 39.6947 -77.4569 346° North 190 219 18,100 540 Climbing New York Center
06:31AM 39.7450 -77.4511 North 201 231 18,700 420 Climbing New York Center
06:32AM 39.8117 -77.4519 359° North 206 237 19,000 120 Climbing New York Center
06:33AM 39.8700 -77.4522 360° North 220 253 19,000  Level New York Center
06:34AM 39.9431 -77.4508 North 231 266 19,000  Level New York Center
06:35AM 40.0036 -77.4514 360° North 238 274 19,000  Level New York Center
06:36AM 40.0789 -77.4478 North 238 274 19,000  Level New York Center
06:37AM 40.1414 -77.4483 360° North 238 274 19,000  Level New York Center
06:38AM 40.2164 -77.4472 North 238 274 19,000  Level New York Center
06:39AM 40.2769 -77.4450 North 238 274 19,000  Level New York Center
06:40AM 40.3522 -77.4442 360° North 238 274 19,000  Level New York Center
06:41AM 40.4125 -77.4444 360° North 238 274 19,000  Level New York Center
06:42AM 40.4878 -77.4436 360° North 238 274 19,000  Level New York Center
06:43AM 40.5483 -77.4411 North 238 274 19,000  Level New York Center
06:44AM 40.6256 -77.4406 360° North 238 274 19,000  Level New York Center
06:45AM 40.6964 -77.4392 North 245 282 19,000  Level New York Center
06:46AM 40.7633 -77.4375 North 245 282 19,000  Level New York Center
06:47AM 40.8319 -77.4358 North 245 282 19,000  Level New York Center
06:48AM 40.8989 -77.4342 North 245 282 19,000  Level New York Center
06:49AM 40.9697 -77.4328 North 245 282 19,000  Level New York Center
06:50AM 41.0339 -77.4419 354° North 239 275 19,000 -300 Level New York Center
06:53AM 41.1883 -77.5394 335° Northwest 266 306 18,000 -300 Descending Cleveland Center
06:54AM 41.2539 -77.5792 336° Northwest 263 303 18,000  Level Cleveland Center
06:55AM 41.3169 -77.6186 335° Northwest 255 293 18,000  Level Cleveland Center
06:56AM 41.3783 -77.6578 334° Northwest 249 287 18,000  Level Cleveland Center
06:57AM 41.4528 -77.7044 335° Northwest 249 287 18,000  Level Cleveland Center
06:58AM 41.5131 -77.7425 335° Northwest 244 281 18,000  Level Cleveland Center
06:59AM 41.5736 -77.7800 335° Northwest 243 280 18,000  Level Cleveland Center
07:00AM 41.6347 -77.8175 335° Northwest 243 280 18,000  Level Cleveland Center
07:01AM 41.6975 -77.8578 334° Northwest 249 287 18,000  Level Cleveland Center
07:02AM 41.7600 -77.8967 335° Northwest 249 287 18,000  Level Cleveland Center
07:03AM 41.8336 -77.9442 334° Northwest 248 285 18,000  Level Cleveland Center
07:04AM 41.8944 -77.9817 335° Northwest 243 280 18,000  Level Cleveland Center
07:05AM 41.9589 -78.0222 335° Northwest 245 282 18,000  Level Cleveland Center
07:06AM 42.0214 -78.0606 336° Northwest 245 282 18,000  Level Cleveland Center
07:07AM 42.0825 -78.1006 334° Northwest 245 282 18,000  Level Cleveland Center
07:08AM 42.1439 -78.1386 335° Northwest 243 280 18,000  Level Cleveland Center
07:09AM 42.2047 -78.1767 335° Northwest 242 278 18,000  Level Cleveland Center
07:10AM 42.2656 -78.2161 334° Northwest 241 277 18,000  Level Cleveland Center
07:11AM 42.3264 -78.2542 335° Northwest 242 278 18,000  Level Cleveland Center
07:12AM 42.3867 -78.2931 335° Northwest 241 277 18,000  Level Cleveland Center
07:13AM 42.4464 -78.3325 334° Northwest 240 276 18,000  Level Cleveland Center
07:14AM 42.5083 -78.3722 335° Northwest 243 280 18,000  Level Cleveland Center
07:15AM 42.5811 -78.4186 335° Northwest 242 278 18,000 -180 Level Cleveland Center
07:16AM 42.6433 -78.4592 334° Northwest 246 283 17,700 -660 Descending Cleveland Center
07:17AM 42.7114 -78.5036 334° Northwest 265 305 16,700 -1,020 Descending Cleveland Center
07:18AM 42.7847 -78.5525 334° Northwest 288 331 15,700 -1,020 Descending Cleveland Center
07:19AM 42.8572 -78.5981 335° Northwest 288 331 14,700 -840 Descending Cleveland Center
07:20AM 42.9283 -78.6478 333° Northwest 286 329 14,000 -360 Descending Cleveland Center
07:21AM 42.9711 -78.7250 307° West 253 291 14,000 -60 Level Cleveland Center
07:23AM 43.0500 -78.8500 311° West 250 288 13,900 -120 Descending Toronto Center
07:24AM 43.0833 -78.9333 299° West 250 288 13,700 -600 Descending Toronto Center
07:25AM 43.1167 -79.0167 299° West 260 299 12,700 -1,080 Descending Toronto Center
07:26AM 43.1667 -79.0833 316° Northwest 270 311 11,600 -1,020 Descending Toronto Center
07:27AM 43.2167 -79.1833 304° West 280 322 10,700 -1,020 Descending Toronto Center
07:28AM 43.2500 -79.2667 299° West 270 311 9,600 -900 Descending Toronto Center
07:29AM 43.3000 -79.3333 316° Northwest 270 311 9,000 -300 Descending Toronto Center
07:30AM 43.3667 -79.3833 331° Northwest 260 299 9,000 -180 Level Toronto Center
07:31AM 43.4333 -79.4333 331° Northwest 250 288 8,700 -540 Descending Toronto Center
07:32AM 43.5000 -79.4667 340° North 270 311 8,000 -540 Descending Toronto Center
07:33AM 43.5667 -79.5167 331° Northwest 260 299 7,700 -600 Descending Toronto Center
07:34AM 43.6167 -79.4667 36° Northeast 270 311 6,800 -1,140 Descending Toronto Center
07:35AM 43.6667 -79.4000 44° Northeast 240 276 5,500 -900 Descending Toronto Center
07:36AM 43.7167 -79.3333 44° Northeast 240 276 5,000 -420 Descending Toronto Center
07:37AM 43.7667 -79.2667 44° Northeast 230 265 4,700 -540 Descending Toronto Center
07:38AM 43.8167 -79.2333 26° Northeast 220 253 4,000 -360 Descending Toronto Center
07:39AM 43.8500 -79.3167 299° West 210 242 4,000  Level Toronto Center
07:40AM 43.8500 -79.3833 270° West 190 219 4,000  Level Toronto Center
07:41AM 43.8167 -79.4167 216° Southwest 170 196 4,000 -360 Level Toronto Center
07:42AM 43.7833 -79.4667 227° Southwest 160 184 3,300 -780 Descending Toronto Center
07:43AM 43.7500 -79.5167 227° Southwest 160 184 2,500 -840 Descending Toronto Center
07:44AM 43.7333 -79.5667 245° Southwest 150 173 1,700 -720 Descending Toronto Center
07:45AM 43.7000 -79.5833 200° South 120 138 1,100 -600 Descending Toronto Center
07:46AM 43.6833 -79.6167 235° Southwest 110 127 500 -300 Descending Toronto Center
07:47AM 43.6833 -79.6333 270° West 30 35 500  Level Toronto Center
07:48AM 43.6833 -79.6167 90° East 20 23 500  Level Toronto Center
07:52AM 43.6667 -79.5833 125° Southeast 120 138 500  Level Toronto Center